<?xml version="1.0" encoding="UTF-8" standalone="no" ?>
<gpx xmlns="http://www.topografix.com/GPX/1/1" xmlns:xsi="http://www.w3.org/2001/XMLSchema-instance" xsi:schemaLocation="http://www.topografix.com/GPX/1/1 http://www.topografix.com/GPX/1/1/gpx.xsd" version="1.1" creator="VisuGPX - https://www.visugpx.com">
  <metadata>
    <name>randonnée forêt de marly</name>
    <desc><![CDATA[passages en forêt, très agréable, avec montées et descentes 11 kms]]></desc>
  </metadata>
  <trk>
    <name><![CDATA[17 mars 2015 11:07:21]]></name>
    <cmt><![CDATA[17 mars 2015 11:07:21]]></cmt>
    <trkseg>
      <trkpt lat="48.85463" lon="2.07356">
        <ele>176</ele>
        <time>2015-03-17T10:07:55Z</time>
      </trkpt>
      <trkpt lat="48.85484" lon="2.07341">
        <ele>174</ele>
        <time>2015-03-17T10:08:19Z</time>
      </trkpt>
      <trkpt lat="48.85493" lon="2.07345">
        <ele>174</ele>
        <time>2015-03-17T10:08:24Z</time>
      </trkpt>
      <trkpt lat="48.85515" lon="2.07337">
        <ele>174</ele>
        <time>2015-03-17T10:08:49Z</time>
      </trkpt>
      <trkpt lat="48.85512" lon="2.07339">
        <ele>175</ele>
        <time>2015-03-17T10:09:05Z</time>
      </trkpt>
      <trkpt lat="48.85523" lon="2.07369">
        <ele>173</ele>
        <time>2015-03-17T10:10:09Z</time>
      </trkpt>
      <trkpt lat="48.85543" lon="2.07384">
        <ele>171</ele>
        <time>2015-03-17T10:10:30Z</time>
      </trkpt>
      <trkpt lat="48.85579" lon="2.07396">
        <ele>174</ele>
        <time>2015-03-17T10:11:00Z</time>
      </trkpt>
      <trkpt lat="48.8562" lon="2.07425">
        <ele>175</ele>
        <time>2015-03-17T10:12:07Z</time>
      </trkpt>
      <trkpt lat="48.85665" lon="2.07441">
        <ele>176</ele>
        <time>2015-03-17T10:12:42Z</time>
      </trkpt>
      <trkpt lat="48.85676" lon="2.07409">
        <ele>176</ele>
        <time>2015-03-17T10:13:31Z</time>
      </trkpt>
      <trkpt lat="48.85674" lon="2.07374">
        <ele>175</ele>
        <time>2015-03-17T10:14:05Z</time>
      </trkpt>
      <trkpt lat="48.85691" lon="2.07358">
        <ele>165</ele>
        <time>2015-03-17T10:15:39Z</time>
      </trkpt>
      <trkpt lat="48.85692" lon="2.07324">
        <ele>166</ele>
        <time>2015-03-17T10:15:58Z</time>
      </trkpt>
      <trkpt lat="48.85701" lon="2.07292">
        <ele>165</ele>
        <time>2015-03-17T10:16:18Z</time>
      </trkpt>
      <trkpt lat="48.85712" lon="2.07262">
        <ele>167</ele>
        <time>2015-03-17T10:16:54Z</time>
      </trkpt>
      <trkpt lat="48.85725" lon="2.07235">
        <ele>169</ele>
        <time>2015-03-17T10:17:28Z</time>
      </trkpt>
      <trkpt lat="48.85748" lon="2.07247">
        <ele>167</ele>
        <time>2015-03-17T10:18:37Z</time>
      </trkpt>
      <trkpt lat="48.85769" lon="2.07264">
        <ele>172</ele>
        <time>2015-03-17T10:18:57Z</time>
      </trkpt>
      <trkpt lat="48.8581" lon="2.07292">
        <ele>171</ele>
        <time>2015-03-17T10:19:35Z</time>
      </trkpt>
      <trkpt lat="48.85854" lon="2.07315">
        <ele>170</ele>
        <time>2015-03-17T10:20:09Z</time>
      </trkpt>
      <trkpt lat="48.85868" lon="2.07342">
        <ele>169</ele>
        <time>2015-03-17T10:20:26Z</time>
      </trkpt>
      <trkpt lat="48.85891" lon="2.07343">
        <ele>167</ele>
        <time>2015-03-17T10:20:45Z</time>
      </trkpt>
      <trkpt lat="48.85913" lon="2.07359">
        <ele>165</ele>
        <time>2015-03-17T10:21:04Z</time>
      </trkpt>
      <trkpt lat="48.85932" lon="2.0734">
        <ele>161</ele>
        <time>2015-03-17T10:21:38Z</time>
      </trkpt>
      <trkpt lat="48.85929" lon="2.07335">
        <ele>142</ele>
        <time>2015-03-17T10:22:15Z</time>
      </trkpt>
      <trkpt lat="48.85934" lon="2.0732">
        <ele>154</ele>
        <time>2015-03-17T10:23:36Z</time>
      </trkpt>
      <trkpt lat="48.85943" lon="2.07287">
        <ele>147</ele>
        <time>2015-03-17T10:24:03Z</time>
      </trkpt>
      <trkpt lat="48.8596" lon="2.07222">
        <ele>139</ele>
        <time>2015-03-17T10:24:38Z</time>
      </trkpt>
      <trkpt lat="48.85964" lon="2.07186">
        <ele>137</ele>
        <time>2015-03-17T10:24:56Z</time>
      </trkpt>
      <trkpt lat="48.85961" lon="2.07116">
        <ele>135</ele>
        <time>2015-03-17T10:25:29Z</time>
      </trkpt>
      <trkpt lat="48.85966" lon="2.07045">
        <ele>134</ele>
        <time>2015-03-17T10:26:12Z</time>
      </trkpt>
      <trkpt lat="48.85955" lon="2.07015">
        <ele>133</ele>
        <time>2015-03-17T10:26:37Z</time>
      </trkpt>
      <trkpt lat="48.85953" lon="2.0698">
        <ele>132</ele>
        <time>2015-03-17T10:26:56Z</time>
      </trkpt>
      <trkpt lat="48.85968" lon="2.06953">
        <ele>132</ele>
        <time>2015-03-17T10:27:15Z</time>
      </trkpt>
      <trkpt lat="48.85996" lon="2.06897">
        <ele>131</ele>
        <time>2015-03-17T10:27:52Z</time>
      </trkpt>
      <trkpt lat="48.8602" lon="2.06837">
        <ele>131</ele>
        <time>2015-03-17T10:28:25Z</time>
      </trkpt>
      <trkpt lat="48.86045" lon="2.06778">
        <ele>130</ele>
        <time>2015-03-17T10:28:54Z</time>
      </trkpt>
      <trkpt lat="48.86058" lon="2.06748">
        <ele>128</ele>
        <time>2015-03-17T10:29:13Z</time>
      </trkpt>
      <trkpt lat="48.86076" lon="2.06727">
        <ele>122</ele>
        <time>2015-03-17T10:29:32Z</time>
      </trkpt>
      <trkpt lat="48.86085" lon="2.06691">
        <ele>119</ele>
        <time>2015-03-17T10:30:18Z</time>
      </trkpt>
      <trkpt lat="48.86092" lon="2.06655">
        <ele>121</ele>
        <time>2015-03-17T10:31:58Z</time>
      </trkpt>
      <trkpt lat="48.86112" lon="2.06593">
        <ele>112</ele>
        <time>2015-03-17T10:32:35Z</time>
      </trkpt>
      <trkpt lat="48.86131" lon="2.06531">
        <ele>108</ele>
        <time>2015-03-17T10:33:07Z</time>
      </trkpt>
      <trkpt lat="48.86141" lon="2.06461">
        <ele>106</ele>
        <time>2015-03-17T10:33:40Z</time>
      </trkpt>
      <trkpt lat="48.86159" lon="2.06396">
        <ele>105</ele>
        <time>2015-03-17T10:34:13Z</time>
      </trkpt>
      <trkpt lat="48.86171" lon="2.06365">
        <ele>105</ele>
        <time>2015-03-17T10:34:32Z</time>
      </trkpt>
      <trkpt lat="48.86188" lon="2.06299">
        <ele>100</ele>
        <time>2015-03-17T10:35:10Z</time>
      </trkpt>
      <trkpt lat="48.862" lon="2.06268">
        <ele>99</ele>
        <time>2015-03-17T10:35:30Z</time>
      </trkpt>
      <trkpt lat="48.86201" lon="2.06234">
        <ele>97</ele>
        <time>2015-03-17T10:35:44Z</time>
      </trkpt>
      <trkpt lat="48.86216" lon="2.06206">
        <ele>92</ele>
        <time>2015-03-17T10:36:17Z</time>
      </trkpt>
      <trkpt lat="48.86227" lon="2.06176">
        <ele>90</ele>
        <time>2015-03-17T10:36:37Z</time>
      </trkpt>
      <trkpt lat="48.8622" lon="2.06142">
        <ele>90</ele>
        <time>2015-03-17T10:36:57Z</time>
      </trkpt>
      <trkpt lat="48.86236" lon="2.06119">
        <ele>90</ele>
        <time>2015-03-17T10:37:12Z</time>
      </trkpt>
      <trkpt lat="48.86241" lon="2.06083">
        <ele>91</ele>
        <time>2015-03-17T10:37:26Z</time>
      </trkpt>
      <trkpt lat="48.86249" lon="2.06015">
        <ele>90</ele>
        <time>2015-03-17T10:38:13Z</time>
      </trkpt>
      <trkpt lat="48.86258" lon="2.05982">
        <ele>91</ele>
        <time>2015-03-17T10:39:07Z</time>
      </trkpt>
      <trkpt lat="48.86261" lon="2.05948">
        <ele>93</ele>
        <time>2015-03-17T10:39:24Z</time>
      </trkpt>
      <trkpt lat="48.86279" lon="2.05884">
        <ele>99</ele>
        <time>2015-03-17T10:39:59Z</time>
      </trkpt>
      <trkpt lat="48.86293" lon="2.05819">
        <ele>102</ele>
        <time>2015-03-17T10:40:32Z</time>
      </trkpt>
      <trkpt lat="48.86303" lon="2.05749">
        <ele>104</ele>
        <time>2015-03-17T10:41:05Z</time>
      </trkpt>
      <trkpt lat="48.86323" lon="2.05686">
        <ele>106</ele>
        <time>2015-03-17T10:41:39Z</time>
      </trkpt>
      <trkpt lat="48.86333" lon="2.05618">
        <ele>108</ele>
        <time>2015-03-17T10:42:11Z</time>
      </trkpt>
      <trkpt lat="48.86346" lon="2.0555">
        <ele>109</ele>
        <time>2015-03-17T10:42:46Z</time>
      </trkpt>
      <trkpt lat="48.8636" lon="2.05483">
        <ele>110</ele>
        <time>2015-03-17T10:43:22Z</time>
      </trkpt>
      <trkpt lat="48.86372" lon="2.05455">
        <ele>111</ele>
        <time>2015-03-17T10:43:45Z</time>
      </trkpt>
      <trkpt lat="48.86374" lon="2.05419">
        <ele>111</ele>
        <time>2015-03-17T10:44:42Z</time>
      </trkpt>
      <trkpt lat="48.86381" lon="2.05385">
        <ele>111</ele>
        <time>2015-03-17T10:45:01Z</time>
      </trkpt>
      <trkpt lat="48.86384" lon="2.05351">
        <ele>104</ele>
        <time>2015-03-17T10:46:04Z</time>
      </trkpt>
      <trkpt lat="48.86393" lon="2.05318">
        <ele>109</ele>
        <time>2015-03-17T10:46:24Z</time>
      </trkpt>
      <trkpt lat="48.86427" lon="2.05271">
        <ele>109</ele>
        <time>2015-03-17T10:46:56Z</time>
      </trkpt>
      <trkpt lat="48.86441" lon="2.05244">
        <ele>110</ele>
        <time>2015-03-17T10:47:16Z</time>
      </trkpt>
      <trkpt lat="48.86435" lon="2.0521">
        <ele>116</ele>
        <time>2015-03-17T10:48:33Z</time>
      </trkpt>
      <trkpt lat="48.86452" lon="2.05186">
        <ele>124</ele>
        <time>2015-03-17T10:49:16Z</time>
      </trkpt>
      <trkpt lat="48.86476" lon="2.05179">
        <ele>128</ele>
        <time>2015-03-17T10:49:40Z</time>
      </trkpt>
      <trkpt lat="48.86495" lon="2.05159">
        <ele>128</ele>
        <time>2015-03-17T10:49:55Z</time>
      </trkpt>
      <trkpt lat="48.86518" lon="2.0516">
        <ele>126</ele>
        <time>2015-03-17T10:50:11Z</time>
      </trkpt>
      <trkpt lat="48.86538" lon="2.05144">
        <ele>126</ele>
        <time>2015-03-17T10:50:44Z</time>
      </trkpt>
      <trkpt lat="48.86583" lon="2.05131">
        <ele>129</ele>
        <time>2015-03-17T10:51:13Z</time>
      </trkpt>
      <trkpt lat="48.86606" lon="2.05128">
        <ele>128</ele>
        <time>2015-03-17T10:51:43Z</time>
      </trkpt>
      <trkpt lat="48.86629" lon="2.05128">
        <ele>128</ele>
        <time>2015-03-17T10:52:02Z</time>
      </trkpt>
      <trkpt lat="48.86652" lon="2.05123">
        <ele>130</ele>
        <time>2015-03-17T10:52:45Z</time>
      </trkpt>
      <trkpt lat="48.86664" lon="2.05126">
        <ele>131</ele>
        <time>2015-03-17T10:52:53Z</time>
      </trkpt>
      <trkpt lat="48.8667" lon="2.05092">
        <ele>134</ele>
        <time>2015-03-17T10:53:10Z</time>
      </trkpt>
      <trkpt lat="48.86677" lon="2.05059">
        <ele>136</ele>
        <time>2015-03-17T10:53:41Z</time>
      </trkpt>
      <trkpt lat="48.8668" lon="2.05025">
        <ele>135</ele>
        <time>2015-03-17T10:54:12Z</time>
      </trkpt>
      <trkpt lat="48.86703" lon="2.05023">
        <ele>121</ele>
        <time>2015-03-17T10:56:23Z</time>
      </trkpt>
      <trkpt lat="48.86716" lon="2.05035">
        <ele>123</ele>
        <time>2015-03-17T10:56:46Z</time>
      </trkpt>
      <trkpt lat="48.8674" lon="2.05035">
        <ele>123</ele>
        <time>2015-03-17T10:57:06Z</time>
      </trkpt>
      <trkpt lat="48.86763" lon="2.05033">
        <ele>123</ele>
        <time>2015-03-17T10:57:27Z</time>
      </trkpt>
      <trkpt lat="48.86806" lon="2.05006">
        <ele>123</ele>
        <time>2015-03-17T10:58:04Z</time>
      </trkpt>
      <trkpt lat="48.86846" lon="2.04973">
        <ele>123</ele>
        <time>2015-03-17T10:58:39Z</time>
      </trkpt>
      <trkpt lat="48.86867" lon="2.04957">
        <ele>124</ele>
        <time>2015-03-17T10:59:42Z</time>
      </trkpt>
      <trkpt lat="48.86889" lon="2.04952">
        <ele>123</ele>
        <time>2015-03-17T11:00:08Z</time>
      </trkpt>
      <trkpt lat="48.86885" lon="2.04918">
        <ele>125</ele>
        <time>2015-03-17T11:00:29Z</time>
      </trkpt>
      <trkpt lat="48.86905" lon="2.04933">
        <ele>126</ele>
        <time>2015-03-17T11:01:06Z</time>
      </trkpt>
      <trkpt lat="48.8688" lon="2.04934">
        <ele>126</ele>
        <time>2015-03-17T11:01:20Z</time>
      </trkpt>
      <trkpt lat="48.86837" lon="2.04954">
        <ele>128</ele>
        <time>2015-03-17T11:01:46Z</time>
      </trkpt>
      <trkpt lat="48.86817" lon="2.0497">
        <ele>130</ele>
        <time>2015-03-17T11:02:12Z</time>
      </trkpt>
      <trkpt lat="48.86802" lon="2.04997">
        <ele>132</ele>
        <time>2015-03-17T11:02:32Z</time>
      </trkpt>
      <trkpt lat="48.86762" lon="2.0503">
        <ele>132</ele>
        <time>2015-03-17T11:03:15Z</time>
      </trkpt>
      <trkpt lat="48.86739" lon="2.05029">
        <ele>132</ele>
        <time>2015-03-17T11:03:37Z</time>
      </trkpt>
      <trkpt lat="48.86716" lon="2.05032">
        <ele>133</ele>
        <time>2015-03-17T11:03:56Z</time>
      </trkpt>
      <trkpt lat="48.86694" lon="2.05025">
        <ele>135</ele>
        <time>2015-03-17T11:04:13Z</time>
      </trkpt>
      <trkpt lat="48.86715" lon="2.05039">
        <ele>132</ele>
        <time>2015-03-17T11:05:18Z</time>
      </trkpt>
      <trkpt lat="48.86739" lon="2.05037">
        <ele>133</ele>
        <time>2015-03-17T11:05:33Z</time>
      </trkpt>
      <trkpt lat="48.86784" lon="2.05025">
        <ele>131</ele>
        <time>2015-03-17T11:06:12Z</time>
      </trkpt>
      <trkpt lat="48.86806" lon="2.05014">
        <ele>131</ele>
        <time>2015-03-17T11:06:30Z</time>
      </trkpt>
      <trkpt lat="48.86825" lon="2.04996">
        <ele>130</ele>
        <time>2015-03-17T11:06:48Z</time>
      </trkpt>
      <trkpt lat="48.86842" lon="2.04971">
        <ele>129</ele>
        <time>2015-03-17T11:07:07Z</time>
      </trkpt>
      <trkpt lat="48.86865" lon="2.04959">
        <ele>128</ele>
        <time>2015-03-17T11:07:26Z</time>
      </trkpt>
      <trkpt lat="48.86888" lon="2.04963">
        <ele>129</ele>
        <time>2015-03-17T11:07:48Z</time>
      </trkpt>
      <trkpt lat="48.8691" lon="2.0497">
        <ele>128</ele>
        <time>2015-03-17T11:08:10Z</time>
      </trkpt>
      <trkpt lat="48.86952" lon="2.05001">
        <ele>128</ele>
        <time>2015-03-17T11:08:53Z</time>
      </trkpt>
      <trkpt lat="48.86973" lon="2.05015">
        <ele>129</ele>
        <time>2015-03-17T11:09:09Z</time>
      </trkpt>
      <trkpt lat="48.86995" lon="2.05007">
        <ele>136</ele>
        <time>2015-03-17T11:10:17Z</time>
      </trkpt>
      <trkpt lat="48.87019" lon="2.04999">
        <ele>130</ele>
        <time>2015-03-17T11:10:46Z</time>
      </trkpt>
      <trkpt lat="48.8704" lon="2.05015">
        <ele>133</ele>
        <time>2015-03-17T11:11:08Z</time>
      </trkpt>
      <trkpt lat="48.87082" lon="2.05042">
        <ele>136</ele>
        <time>2015-03-17T11:11:43Z</time>
      </trkpt>
      <trkpt lat="48.87085" lon="2.05078">
        <ele>138</ele>
        <time>2015-03-17T11:12:07Z</time>
      </trkpt>
      <trkpt lat="48.87103" lon="2.05142">
        <ele>141</ele>
        <time>2015-03-17T11:12:49Z</time>
      </trkpt>
      <trkpt lat="48.87109" lon="2.05175">
        <ele>143</ele>
        <time>2015-03-17T11:13:07Z</time>
      </trkpt>
      <trkpt lat="48.87134" lon="2.05169">
        <ele>142</ele>
        <time>2015-03-17T11:13:39Z</time>
      </trkpt>
      <trkpt lat="48.87155" lon="2.05181">
        <ele>151</ele>
        <time>2015-03-17T11:15:23Z</time>
      </trkpt>
      <trkpt lat="48.87172" lon="2.05182">
        <ele>149</ele>
        <time>2015-03-17T11:15:39Z</time>
      </trkpt>
      <trkpt lat="48.87196" lon="2.05187">
        <ele>149</ele>
        <time>2015-03-17T11:16:40Z</time>
      </trkpt>
      <trkpt lat="48.87218" lon="2.05179">
        <ele>152</ele>
        <time>2015-03-17T11:17:06Z</time>
      </trkpt>
      <trkpt lat="48.87241" lon="2.05171">
        <ele>151</ele>
        <time>2015-03-17T11:18:29Z</time>
      </trkpt>
      <trkpt lat="48.87264" lon="2.05167">
        <ele>153</ele>
        <time>2015-03-17T11:18:56Z</time>
      </trkpt>
      <trkpt lat="48.87309" lon="2.05161">
        <ele>155</ele>
        <time>2015-03-17T11:19:38Z</time>
      </trkpt>
      <trkpt lat="48.8733" lon="2.05147">
        <ele>156</ele>
        <time>2015-03-17T11:19:51Z</time>
      </trkpt>
      <trkpt lat="48.87376" lon="2.05145">
        <ele>156</ele>
        <time>2015-03-17T11:20:27Z</time>
      </trkpt>
      <trkpt lat="48.87422" lon="2.05131">
        <ele>156</ele>
        <time>2015-03-17T11:21:15Z</time>
      </trkpt>
      <trkpt lat="48.87423" lon="2.05127">
        <ele>159</ele>
        <time>2015-03-17T11:21:52Z</time>
      </trkpt>
      <trkpt lat="48.87442" lon="2.05148">
        <ele>163</ele>
        <time>2015-03-17T11:22:40Z</time>
      </trkpt>
      <trkpt lat="48.87466" lon="2.05147">
        <ele>165</ele>
        <time>2015-03-17T11:23:17Z</time>
      </trkpt>
      <trkpt lat="48.87488" lon="2.05137">
        <ele>183</ele>
        <time>2015-03-17T11:25:19Z</time>
      </trkpt>
      <trkpt lat="48.87534" lon="2.05129">
        <ele>177</ele>
        <time>2015-03-17T11:26:02Z</time>
      </trkpt>
      <trkpt lat="48.87557" lon="2.05121">
        <ele>175</ele>
        <time>2015-03-17T11:26:22Z</time>
      </trkpt>
      <trkpt lat="48.8758" lon="2.05125">
        <ele>177</ele>
        <time>2015-03-17T11:26:55Z</time>
      </trkpt>
      <trkpt lat="48.87625" lon="2.05106">
        <ele>176</ele>
        <time>2015-03-17T11:27:31Z</time>
      </trkpt>
      <trkpt lat="48.87649" lon="2.05112">
        <ele>175</ele>
        <time>2015-03-17T11:27:45Z</time>
      </trkpt>
      <trkpt lat="48.87672" lon="2.05102">
        <ele>174</ele>
        <time>2015-03-17T11:27:59Z</time>
      </trkpt>
      <trkpt lat="48.87734" lon="2.05058">
        <ele>168</ele>
        <time>2015-03-17T11:28:42Z</time>
      </trkpt>
      <trkpt lat="48.87749" lon="2.05083">
        <ele>162</ele>
        <time>2015-03-17T11:30:55Z</time>
      </trkpt>
      <trkpt lat="48.87772" lon="2.05075">
        <ele>162</ele>
        <time>2015-03-17T11:31:09Z</time>
      </trkpt>
      <trkpt lat="48.8779" lon="2.05051">
        <ele>160</ele>
        <time>2015-03-17T11:31:33Z</time>
      </trkpt>
      <trkpt lat="48.87813" lon="2.05045">
        <ele>158</ele>
        <time>2015-03-17T11:31:48Z</time>
      </trkpt>
      <trkpt lat="48.87831" lon="2.05024">
        <ele>158</ele>
        <time>2015-03-17T11:32:04Z</time>
      </trkpt>
      <trkpt lat="48.87854" lon="2.05022">
        <ele>157</ele>
        <time>2015-03-17T11:32:26Z</time>
      </trkpt>
      <trkpt lat="48.87898" lon="2.05002">
        <ele>156</ele>
        <time>2015-03-17T11:33:15Z</time>
      </trkpt>
      <trkpt lat="48.87918" lon="2.04984">
        <ele>155</ele>
        <time>2015-03-17T11:33:30Z</time>
      </trkpt>
      <trkpt lat="48.8794" lon="2.04991">
        <ele>154</ele>
        <time>2015-03-17T11:33:48Z</time>
      </trkpt>
      <trkpt lat="48.87961" lon="2.04973">
        <ele>152</ele>
        <time>2015-03-17T11:34:14Z</time>
      </trkpt>
      <trkpt lat="48.88003" lon="2.04944">
        <ele>148</ele>
        <time>2015-03-17T11:34:51Z</time>
      </trkpt>
      <trkpt lat="48.88026" lon="2.04937">
        <ele>146</ele>
        <time>2015-03-17T11:35:08Z</time>
      </trkpt>
      <trkpt lat="48.88045" lon="2.04916">
        <ele>145</ele>
        <time>2015-03-17T11:35:25Z</time>
      </trkpt>
      <trkpt lat="48.88022" lon="2.04917">
        <ele>121</ele>
        <time>2015-03-17T11:37:19Z</time>
      </trkpt>
      <trkpt lat="48.88024" lon="2.04882">
        <ele>123</ele>
        <time>2015-03-17T11:37:37Z</time>
      </trkpt>
      <trkpt lat="48.88017" lon="2.04836">
        <ele>124</ele>
        <time>2015-03-17T11:38:07Z</time>
      </trkpt>
      <trkpt lat="48.88011" lon="2.04767">
        <ele>125</ele>
        <time>2015-03-17T11:38:42Z</time>
      </trkpt>
      <trkpt lat="48.87999" lon="2.04701">
        <ele>128</ele>
        <time>2015-03-17T11:39:21Z</time>
      </trkpt>
      <trkpt lat="48.87983" lon="2.04636">
        <ele>130</ele>
        <time>2015-03-17T11:40:05Z</time>
      </trkpt>
      <trkpt lat="48.87975" lon="2.04603">
        <ele>132</ele>
        <time>2015-03-17T11:40:39Z</time>
      </trkpt>
      <trkpt lat="48.87968" lon="2.0457">
        <ele>134</ele>
        <time>2015-03-17T11:41:00Z</time>
      </trkpt>
      <trkpt lat="48.87961" lon="2.04536">
        <ele>135</ele>
        <time>2015-03-17T11:41:21Z</time>
      </trkpt>
      <trkpt lat="48.87938" lon="2.04531">
        <ele>153</ele>
        <time>2015-03-17T11:42:48Z</time>
      </trkpt>
      <trkpt lat="48.87914" lon="2.04527">
        <ele>154</ele>
        <time>2015-03-17T11:43:03Z</time>
      </trkpt>
      <trkpt lat="48.87892" lon="2.04538">
        <ele>154</ele>
        <time>2015-03-17T11:43:16Z</time>
      </trkpt>
      <trkpt lat="48.8787" lon="2.04528">
        <ele>155</ele>
        <time>2015-03-17T11:43:33Z</time>
      </trkpt>
      <trkpt lat="48.87849" lon="2.04515">
        <ele>157</ele>
        <time>2015-03-17T11:43:57Z</time>
      </trkpt>
      <trkpt lat="48.87802" lon="2.04509">
        <ele>158</ele>
        <time>2015-03-17T11:44:37Z</time>
      </trkpt>
      <trkpt lat="48.87781" lon="2.04521">
        <ele>158</ele>
        <time>2015-03-17T11:45:12Z</time>
      </trkpt>
      <trkpt lat="48.87759" lon="2.04525">
        <ele>159</ele>
        <time>2015-03-17T11:45:36Z</time>
      </trkpt>
      <trkpt lat="48.87713" lon="2.04509">
        <ele>160</ele>
        <time>2015-03-17T11:46:14Z</time>
      </trkpt>
      <trkpt lat="48.87668" lon="2.04508">
        <ele>163</ele>
        <time>2015-03-17T11:47:00Z</time>
      </trkpt>
      <trkpt lat="48.87622" lon="2.0451">
        <ele>165</ele>
        <time>2015-03-17T11:47:39Z</time>
      </trkpt>
      <trkpt lat="48.87599" lon="2.04515">
        <ele>166</ele>
        <time>2015-03-17T11:47:50Z</time>
      </trkpt>
      <trkpt lat="48.87555" lon="2.04491">
        <ele>167</ele>
        <time>2015-03-17T11:48:28Z</time>
      </trkpt>
      <trkpt lat="48.87532" lon="2.04498">
        <ele>168</ele>
        <time>2015-03-17T11:49:51Z</time>
      </trkpt>
      <trkpt lat="48.8751" lon="2.04492">
        <ele>171</ele>
        <time>2015-03-17T11:50:28Z</time>
      </trkpt>
      <trkpt lat="48.8749" lon="2.04513">
        <ele>193</ele>
        <time>2015-03-17T11:55:12Z</time>
      </trkpt>
      <trkpt lat="48.87506" lon="2.04538">
        <ele>186</ele>
        <time>2015-03-17T11:57:31Z</time>
      </trkpt>
      <trkpt lat="48.87497" lon="2.04506">
        <ele>182</ele>
        <time>2015-03-17T11:58:21Z</time>
      </trkpt>
      <trkpt lat="48.87517" lon="2.04526">
        <ele>182</ele>
        <time>2015-03-17T11:59:08Z</time>
      </trkpt>
      <trkpt lat="48.87495" lon="2.0455">
        <ele>186</ele>
        <time>2015-03-17T11:59:59Z</time>
      </trkpt>
      <trkpt lat="48.87495" lon="2.04514">
        <ele>185</ele>
        <time>2015-03-17T12:00:28Z</time>
      </trkpt>
      <trkpt lat="48.87484" lon="2.04484">
        <ele>182</ele>
        <time>2015-03-17T12:01:05Z</time>
      </trkpt>
      <trkpt lat="48.87461" lon="2.04487">
        <ele>181</ele>
        <time>2015-03-17T12:01:37Z</time>
      </trkpt>
      <trkpt lat="48.87439" lon="2.045">
        <ele>181</ele>
        <time>2015-03-17T12:02:00Z</time>
      </trkpt>
      <trkpt lat="48.87417" lon="2.04495">
        <ele>180</ele>
        <time>2015-03-17T12:02:24Z</time>
      </trkpt>
      <trkpt lat="48.87371" lon="2.0448">
        <ele>179</ele>
        <time>2015-03-17T12:02:58Z</time>
      </trkpt>
      <trkpt lat="48.87355" lon="2.04455">
        <ele>178</ele>
        <time>2015-03-17T12:03:09Z</time>
      </trkpt>
      <trkpt lat="48.87332" lon="2.04463">
        <ele>177</ele>
        <time>2015-03-17T12:03:27Z</time>
      </trkpt>
      <trkpt lat="48.87309" lon="2.04457">
        <ele>177</ele>
        <time>2015-03-17T12:03:48Z</time>
      </trkpt>
      <trkpt lat="48.87291" lon="2.04435">
        <ele>178</ele>
        <time>2015-03-17T12:04:20Z</time>
      </trkpt>
      <trkpt lat="48.8725" lon="2.04403">
        <ele>178</ele>
        <time>2015-03-17T12:04:57Z</time>
      </trkpt>
      <trkpt lat="48.8723" lon="2.04386">
        <ele>178</ele>
        <time>2015-03-17T12:05:13Z</time>
      </trkpt>
      <trkpt lat="48.87187" lon="2.04362">
        <ele>178</ele>
        <time>2015-03-17T12:05:54Z</time>
      </trkpt>
      <trkpt lat="48.87128" lon="2.04311">
        <ele>181</ele>
        <time>2015-03-17T12:06:43Z</time>
      </trkpt>
      <trkpt lat="48.87087" lon="2.0428">
        <ele>181</ele>
        <time>2015-03-17T12:07:19Z</time>
      </trkpt>
      <trkpt lat="48.87042" lon="2.04261">
        <ele>182</ele>
        <time>2015-03-17T12:08:02Z</time>
      </trkpt>
      <trkpt lat="48.87001" lon="2.0423">
        <ele>182</ele>
        <time>2015-03-17T12:08:56Z</time>
      </trkpt>
      <trkpt lat="48.86983" lon="2.04207">
        <ele>181</ele>
        <time>2015-03-17T12:09:27Z</time>
      </trkpt>
      <trkpt lat="48.86987" lon="2.04213">
        <ele>186</ele>
        <time>2015-03-17T12:11:02Z</time>
      </trkpt>
      <trkpt lat="48.86981" lon="2.04179">
        <ele>189</ele>
        <time>2015-03-17T12:14:15Z</time>
      </trkpt>
      <trkpt lat="48.86979" lon="2.04145">
        <ele>182</ele>
        <time>2015-03-17T12:14:36Z</time>
      </trkpt>
      <trkpt lat="48.86989" lon="2.04109">
        <ele>180</ele>
        <time>2015-03-17T12:15:13Z</time>
      </trkpt>
      <trkpt lat="48.86973" lon="2.04044">
        <ele>179</ele>
        <time>2015-03-17T12:16:02Z</time>
      </trkpt>
      <trkpt lat="48.86974" lon="2.04009">
        <ele>179</ele>
        <time>2015-03-17T12:16:19Z</time>
      </trkpt>
      <trkpt lat="48.86962" lon="2.03979">
        <ele>180</ele>
        <time>2015-03-17T12:16:35Z</time>
      </trkpt>
      <trkpt lat="48.86942" lon="2.03997">
        <ele>179</ele>
        <time>2015-03-17T12:16:53Z</time>
      </trkpt>
      <trkpt lat="48.86926" lon="2.04023">
        <ele>175</ele>
        <time>2015-03-17T12:18:17Z</time>
      </trkpt>
      <trkpt lat="48.86891" lon="2.04063">
        <ele>178</ele>
        <time>2015-03-17T12:18:51Z</time>
      </trkpt>
      <trkpt lat="48.86854" lon="2.04108">
        <ele>177</ele>
        <time>2015-03-17T12:19:23Z</time>
      </trkpt>
      <trkpt lat="48.86821" lon="2.04157">
        <ele>177</ele>
        <time>2015-03-17T12:19:56Z</time>
      </trkpt>
      <trkpt lat="48.86786" lon="2.04202">
        <ele>174</ele>
        <time>2015-03-17T12:20:36Z</time>
      </trkpt>
      <trkpt lat="48.86755" lon="2.04252">
        <ele>171</ele>
        <time>2015-03-17T12:21:14Z</time>
      </trkpt>
      <trkpt lat="48.86735" lon="2.0427">
        <ele>170</ele>
        <time>2015-03-17T12:21:49Z</time>
      </trkpt>
      <trkpt lat="48.86712" lon="2.04279">
        <ele>170</ele>
        <time>2015-03-17T12:22:12Z</time>
      </trkpt>
      <trkpt lat="48.86667" lon="2.04296">
        <ele>170</ele>
        <time>2015-03-17T12:22:50Z</time>
      </trkpt>
      <trkpt lat="48.86655" lon="2.04326">
        <ele>171</ele>
        <time>2015-03-17T12:23:10Z</time>
      </trkpt>
      <trkpt lat="48.86635" lon="2.04343">
        <ele>171</ele>
        <time>2015-03-17T12:23:35Z</time>
      </trkpt>
      <trkpt lat="48.86618" lon="2.0432">
        <ele>171</ele>
        <time>2015-03-17T12:24:11Z</time>
      </trkpt>
      <trkpt lat="48.86605" lon="2.04349">
        <ele>172</ele>
        <time>2015-03-17T12:25:02Z</time>
      </trkpt>
      <trkpt lat="48.86584" lon="2.04364">
        <ele>174</ele>
        <time>2015-03-17T12:25:21Z</time>
      </trkpt>
      <trkpt lat="48.86541" lon="2.04396">
        <ele>179</ele>
        <time>2015-03-17T12:26:01Z</time>
      </trkpt>
      <trkpt lat="48.86519" lon="2.04401">
        <ele>178</ele>
        <time>2015-03-17T12:26:29Z</time>
      </trkpt>
      <trkpt lat="48.86495" lon="2.04396">
        <ele>177</ele>
        <time>2015-03-17T12:26:54Z</time>
      </trkpt>
      <trkpt lat="48.86449" lon="2.0439">
        <ele>180</ele>
        <time>2015-03-17T12:27:28Z</time>
      </trkpt>
      <trkpt lat="48.86439" lon="2.04422">
        <ele>190</ele>
        <time>2015-03-17T12:29:51Z</time>
      </trkpt>
      <trkpt lat="48.86417" lon="2.04432">
        <ele>189</ele>
        <time>2015-03-17T12:30:05Z</time>
      </trkpt>
      <trkpt lat="48.86384" lon="2.04459">
        <ele>190</ele>
        <time>2015-03-17T12:30:31Z</time>
      </trkpt>
      <trkpt lat="48.86347" lon="2.04505">
        <ele>192</ele>
        <time>2015-03-17T12:31:11Z</time>
      </trkpt>
      <trkpt lat="48.86308" lon="2.04545">
        <ele>192</ele>
        <time>2015-03-17T12:31:47Z</time>
      </trkpt>
      <trkpt lat="48.86288" lon="2.04562">
        <ele>192</ele>
        <time>2015-03-17T12:32:09Z</time>
      </trkpt>
      <trkpt lat="48.86275" lon="2.04591">
        <ele>192</ele>
        <time>2015-03-17T12:32:41Z</time>
      </trkpt>
      <trkpt lat="48.86248" lon="2.04647">
        <ele>190</ele>
        <time>2015-03-17T12:33:39Z</time>
      </trkpt>
      <trkpt lat="48.86232" lon="2.04673">
        <ele>189</ele>
        <time>2015-03-17T12:33:55Z</time>
      </trkpt>
      <trkpt lat="48.86216" lon="2.04697">
        <ele>188</ele>
        <time>2015-03-17T12:34:32Z</time>
      </trkpt>
      <trkpt lat="48.8619" lon="2.04757">
        <ele>184</ele>
        <time>2015-03-17T12:35:12Z</time>
      </trkpt>
      <trkpt lat="48.86156" lon="2.04806">
        <ele>179</ele>
        <time>2015-03-17T12:35:45Z</time>
      </trkpt>
      <trkpt lat="48.86127" lon="2.0486">
        <ele>176</ele>
        <time>2015-03-17T12:36:19Z</time>
      </trkpt>
      <trkpt lat="48.861" lon="2.04917">
        <ele>175</ele>
        <time>2015-03-17T12:36:54Z</time>
      </trkpt>
      <trkpt lat="48.86085" lon="2.04944">
        <ele>174</ele>
        <time>2015-03-17T12:37:12Z</time>
      </trkpt>
      <trkpt lat="48.86083" lon="2.04978">
        <ele>152</ele>
        <time>2015-03-17T12:39:20Z</time>
      </trkpt>
      <trkpt lat="48.86079" lon="2.05011">
        <ele>156</ele>
        <time>2015-03-17T12:39:44Z</time>
      </trkpt>
      <trkpt lat="48.86082" lon="2.05045">
        <ele>156</ele>
        <time>2015-03-17T12:39:59Z</time>
      </trkpt>
      <trkpt lat="48.86086" lon="2.05114">
        <ele>154</ele>
        <time>2015-03-17T12:40:32Z</time>
      </trkpt>
      <trkpt lat="48.86084" lon="2.05184">
        <ele>153</ele>
        <time>2015-03-17T12:41:05Z</time>
      </trkpt>
      <trkpt lat="48.86085" lon="2.05254">
        <ele>152</ele>
        <time>2015-03-17T12:41:42Z</time>
      </trkpt>
      <trkpt lat="48.86083" lon="2.05324">
        <ele>152</ele>
        <time>2015-03-17T12:42:17Z</time>
      </trkpt>
      <trkpt lat="48.86084" lon="2.05393">
        <ele>153</ele>
        <time>2015-03-17T12:42:50Z</time>
      </trkpt>
      <trkpt lat="48.86084" lon="2.05464">
        <ele>153</ele>
        <time>2015-03-17T12:43:27Z</time>
      </trkpt>
      <trkpt lat="48.86085" lon="2.05535">
        <ele>153</ele>
        <time>2015-03-17T12:44:03Z</time>
      </trkpt>
      <trkpt lat="48.86085" lon="2.05604">
        <ele>153</ele>
        <time>2015-03-17T12:44:33Z</time>
      </trkpt>
      <trkpt lat="48.86083" lon="2.05674">
        <ele>152</ele>
        <time>2015-03-17T12:45:12Z</time>
      </trkpt>
      <trkpt lat="48.86085" lon="2.05744">
        <ele>151</ele>
        <time>2015-03-17T12:46:12Z</time>
      </trkpt>
      <trkpt lat="48.86088" lon="2.05778">
        <ele>150</ele>
        <time>2015-03-17T12:46:31Z</time>
      </trkpt>
      <trkpt lat="48.86081" lon="2.05813">
        <ele>149</ele>
        <time>2015-03-17T12:46:47Z</time>
      </trkpt>
      <trkpt lat="48.86081" lon="2.05883">
        <ele>149</ele>
        <time>2015-03-17T12:47:21Z</time>
      </trkpt>
      <trkpt lat="48.8608" lon="2.05917">
        <ele>149</ele>
        <time>2015-03-17T12:47:39Z</time>
      </trkpt>
      <trkpt lat="48.86083" lon="2.05952">
        <ele>149</ele>
        <time>2015-03-17T12:48:21Z</time>
      </trkpt>
      <trkpt lat="48.86084" lon="2.06022">
        <ele>148</ele>
        <time>2015-03-17T12:49:01Z</time>
      </trkpt>
      <trkpt lat="48.86083" lon="2.06091">
        <ele>146</ele>
        <time>2015-03-17T12:49:34Z</time>
      </trkpt>
      <trkpt lat="48.86084" lon="2.06162">
        <ele>144</ele>
        <time>2015-03-17T12:50:09Z</time>
      </trkpt>
      <trkpt lat="48.86084" lon="2.06234">
        <ele>145</ele>
        <time>2015-03-17T12:50:45Z</time>
      </trkpt>
      <trkpt lat="48.86081" lon="2.06268">
        <ele>145</ele>
        <time>2015-03-17T12:51:03Z</time>
      </trkpt>
      <trkpt lat="48.86091" lon="2.06338">
        <ele>145</ele>
        <time>2015-03-17T12:51:39Z</time>
      </trkpt>
      <trkpt lat="48.8608" lon="2.06369">
        <ele>144</ele>
        <time>2015-03-17T12:51:53Z</time>
      </trkpt>
      <trkpt lat="48.8608" lon="2.06441">
        <ele>141</ele>
        <time>2015-03-17T12:52:37Z</time>
      </trkpt>
      <trkpt lat="48.86084" lon="2.06509">
        <ele>139</ele>
        <time>2015-03-17T12:53:15Z</time>
      </trkpt>
      <trkpt lat="48.86074" lon="2.06613">
        <ele>136</ele>
        <time>2015-03-17T12:54:01Z</time>
      </trkpt>
      <trkpt lat="48.86059" lon="2.06653">
        <ele>135</ele>
        <time>2015-03-17T12:54:04Z</time>
      </trkpt>
      <trkpt lat="48.86081" lon="2.06657">
        <ele>134</ele>
        <time>2015-03-17T12:54:27Z</time>
      </trkpt>
      <trkpt lat="48.86085" lon="2.06692">
        <ele>133</ele>
        <time>2015-03-17T12:54:47Z</time>
      </trkpt>
      <trkpt lat="48.8607" lon="2.06718">
        <ele>132</ele>
        <time>2015-03-17T12:55:47Z</time>
      </trkpt>
      <trkpt lat="48.86052" lon="2.0674">
        <ele>131</ele>
        <time>2015-03-17T12:56:02Z</time>
      </trkpt>
      <trkpt lat="48.86028" lon="2.06798">
        <ele>130</ele>
        <time>2015-03-17T12:56:52Z</time>
      </trkpt>
      <trkpt lat="48.86008" lon="2.06862">
        <ele>128</ele>
        <time>2015-03-17T12:57:28Z</time>
      </trkpt>
      <trkpt lat="48.8598" lon="2.06919">
        <ele>128</ele>
        <time>2015-03-17T12:58:04Z</time>
      </trkpt>
      <trkpt lat="48.8597" lon="2.0695">
        <ele>128</ele>
        <time>2015-03-17T12:58:17Z</time>
      </trkpt>
      <trkpt lat="48.85955" lon="2.06976">
        <ele>127</ele>
        <time>2015-03-17T12:58:35Z</time>
      </trkpt>
      <trkpt lat="48.85954" lon="2.07011">
        <ele>127</ele>
        <time>2015-03-17T12:58:49Z</time>
      </trkpt>
      <trkpt lat="48.8596" lon="2.07081">
        <ele>128</ele>
        <time>2015-03-17T12:59:31Z</time>
      </trkpt>
      <trkpt lat="48.85965" lon="2.07114">
        <ele>131</ele>
        <time>2015-03-17T12:59:47Z</time>
      </trkpt>
      <trkpt lat="48.85964" lon="2.0715">
        <ele>131</ele>
        <time>2015-03-17T13:00:04Z</time>
      </trkpt>
      <trkpt lat="48.8596" lon="2.07218">
        <ele>132</ele>
        <time>2015-03-17T13:00:42Z</time>
      </trkpt>
      <trkpt lat="48.85952" lon="2.07252">
        <ele>133</ele>
        <time>2015-03-17T13:00:59Z</time>
      </trkpt>
      <trkpt lat="48.85934" lon="2.07317">
        <ele>134</ele>
        <time>2015-03-17T13:01:34Z</time>
      </trkpt>
      <trkpt lat="48.85924" lon="2.07351">
        <ele>133</ele>
        <time>2015-03-17T13:01:51Z</time>
      </trkpt>
      <trkpt lat="48.85918" lon="2.07384">
        <ele>135</ele>
        <time>2015-03-17T13:02:23Z</time>
      </trkpt>
      <trkpt lat="48.85907" lon="2.07451">
        <ele>135</ele>
        <time>2015-03-17T13:03:02Z</time>
      </trkpt>
      <trkpt lat="48.859" lon="2.0752">
        <ele>133</ele>
        <time>2015-03-17T13:03:38Z</time>
      </trkpt>
      <trkpt lat="48.859" lon="2.07555">
        <ele>134</ele>
        <time>2015-03-17T13:04:01Z</time>
      </trkpt>
      <trkpt lat="48.85877" lon="2.07547">
        <ele>135</ele>
        <time>2015-03-17T13:04:16Z</time>
      </trkpt>
      <trkpt lat="48.85835" lon="2.07518">
        <ele>136</ele>
        <time>2015-03-17T13:04:57Z</time>
      </trkpt>
      <trkpt lat="48.85791" lon="2.07501">
        <ele>138</ele>
        <time>2015-03-17T13:05:39Z</time>
      </trkpt>
      <trkpt lat="48.85746" lon="2.07479">
        <ele>140</ele>
        <time>2015-03-17T13:06:18Z</time>
      </trkpt>
      <trkpt lat="48.85703" lon="2.07454">
        <ele>143</ele>
        <time>2015-03-17T13:07:03Z</time>
      </trkpt>
      <trkpt lat="48.8566" lon="2.07429">
        <ele>148</ele>
        <time>2015-03-17T13:07:43Z</time>
      </trkpt>
      <trkpt lat="48.85616" lon="2.0741">
        <ele>153</ele>
        <time>2015-03-17T13:08:21Z</time>
      </trkpt>
      <trkpt lat="48.85572" lon="2.07389">
        <ele>159</ele>
        <time>2015-03-17T13:09:01Z</time>
      </trkpt>
      <trkpt lat="48.85549" lon="2.07384">
        <ele>162</ele>
        <time>2015-03-17T13:09:19Z</time>
      </trkpt>
      <trkpt lat="48.8553" lon="2.07367">
        <ele>163</ele>
        <time>2015-03-17T13:09:42Z</time>
      </trkpt>
      <trkpt lat="48.8551" lon="2.07347">
        <ele>165</ele>
        <time>2015-03-17T13:09:57Z</time>
      </trkpt>
      <trkpt lat="48.85487" lon="2.07345">
        <ele>165</ele>
        <time>2015-03-17T13:10:13Z</time>
      </trkpt>
      <trkpt lat="48.85465" lon="2.07355">
        <ele>165</ele>
        <time>2015-03-17T13:10:32Z</time>
      </trkpt>
      <trkpt lat="48.85458" lon="2.07389">
        <ele>167</ele>
        <time>2015-03-17T13:10:50Z</time>
      </trkpt>
      <trkpt lat="48.85466" lon="2.07395">
        <ele>166</ele>
        <time>2015-03-17T13:12:01Z</time>
      </trkpt>
      <trkpt lat="48.8546" lon="2.07389">
        <ele>188</ele>
        <time>2015-03-17T13:15:25Z</time>
      </trkpt>
      <trkpt lat="48.85452" lon="2.07357">
        <ele>184</ele>
        <time>2015-03-17T13:17:41Z</time>
      </trkpt>
      <trkpt lat="48.85448" lon="2.07322">
        <ele>183</ele>
        <time>2015-03-17T13:17:48Z</time>
      </trkpt>
      <trkpt lat="48.85457" lon="2.0693">
        <ele>183</ele>
        <time>2015-03-17T13:18:19Z</time>
      </trkpt>
      <trkpt lat="48.85467" lon="2.06539">
        <ele>183</ele>
        <time>2015-03-17T13:18:50Z</time>
      </trkpt>
      <trkpt lat="48.85469" lon="2.06456">
        <ele>183</ele>
        <time>2015-03-17T13:18:59Z</time>
      </trkpt>
      <trkpt lat="48.85468" lon="2.06501">
        <ele>182</ele>
        <time>2015-03-17T13:19:28Z</time>
      </trkpt>
      <trkpt lat="48.85457" lon="2.06947">
        <ele>178</ele>
        <time>2015-03-17T13:20:00Z</time>
      </trkpt>
      <trkpt lat="48.85447" lon="2.07301">
        <ele>178</ele>
        <time>2015-03-17T13:20:32Z</time>
      </trkpt>
      <trkpt lat="48.85434" lon="2.0777">
        <ele>176</ele>
        <time>2015-03-17T13:21:03Z</time>
      </trkpt>
      <trkpt lat="48.85429" lon="2.07961">
        <ele>177</ele>
        <time>2015-03-17T13:21:14Z</time>
      </trkpt>
    </trkseg>
  </trk>
</gpx>